Maersk Magellan — 9V6751 — position and weather

sailwx.info

Track history (hours):
 
Tides and Currents Weather Stations Pressure Air Temp Water Temp Dewpoint Dewpoint Depression Visibility Wind Speed Wind Dir Waves Ship Positions

Maersk Magellan

Last reported at 2015-Aug-05 11:22 UTC. Time now 2015-Aug-29 06:10 UTC.
Position N 30°03' W 090°34'.
Warning: this ship's position is 23 days out of date.

Length 183 m; draft 12.4 m.

Type: Ship. MMSI: 566549000.

Date/timePositionNaut miles runAvg speedWind from/ knotsBaromVisibWave heightAir tempDewpointWater temp
2015-Aug-05 11:22N 30°03' W 090°34'6 5.2
2015-Aug-05 10:19N 30°00' W 090°28'5 7.1
2015-Aug-05 09:33N 29°57' W 090°23'4 0.8
2015-Aug-05 04:21N 29°57' W 090°18'9 0.2
2015-Aug-03 14:33N 29°56' W 090°08'7 6.4
2015-Aug-03 13:31N 29°57' W 090°01'6 5.2
2015-Aug-03 12:19N 29°52' W 089°56'5 6.5
2015-Aug-03 11:34N 29°49' W 090°00'  
2015-Jul-31 18:33N 25°40' W 079°37'1111.6
2015-Jul-31 17:33N 25°51' W 079°35'1211.5
2015-Jul-31 16:33N 26°02' W 079°33'9 8.7
2015-Jul-31 15:33N 26°11' W 079°31'1312.4
2015-Jul-31 14:33N 26°18' W 079°19'  
Track history (hours):
 
Tides and Currents Weather Stations Pressure Air Temp Water Temp Dewpoint Dewpoint Depression Visibility Wind Speed Wind Dir Waves Ship Positions

Maersk Magellan

Last reported at 2015-Aug-05 11:22 UTC. Time now 2015-Aug-29 06:10 UTC.
Position N 30°03' W 090°34'.
Warning: this ship's position is 23 days out of date.

Length 183 m; draft 12.4 m.

Type: Ship. MMSI: 566549000.

Date/timePositionNaut miles runAvg speedWind from/ knotsBaromVisibWave heightAir tempDewpointWater temp
2015-Aug-05 11:22N 30°03' W 090°34'6 5.2
2015-Aug-05 10:19N 30°00' W 090°28'5 7.1
2015-Aug-05 09:33N 29°57' W 090°23'4 0.8
2015-Aug-05 04:21N 29°57' W 090°18'9 0.2
2015-Aug-03 14:33N 29°56' W 090°08'7 6.4
2015-Aug-03 13:31N 29°57' W 090°01'6 5.2
2015-Aug-03 12:19N 29°52' W 089°56'5 6.5
2015-Aug-03 11:34N 29°49' W 090°00'  
2015-Jul-31 18:33N 25°40' W 079°37'1111.6
2015-Jul-31 17:33N 25°51' W 079°35'1211.5
2015-Jul-31 16:33N 26°02' W 079°33'9 8.7
2015-Jul-31 15:33N 26°11' W 079°31'1312.4
2015-Jul-31 14:33N 26°18' W 079°19'  

Dump ship's entire track history